Time;durP1;ratioP1;P1;durP2;ratioP2;P2;SDS_P1;SDS_P2;PMS_P1;PMS_P2;Temp;Humidity;BMP_temperature;BMP_pressure;BME280_temperature;BME280_humidity;BME280_pressure;Samples;Min_cycle;Max_cycle;Signal;HPM_P1;HPM_P2
2021/05/16 00:00:00;;;;;;;12.40;9.00;;;;;;;12.06;85.16;97460.09;125928;1096;21467;-79
2021/05/16 00:02:27;;;;;;;12.40;9.00;;;;;;;12.08;84.89;97457.90;126036;1101;22885;-79
2021/05/16 00:04:55;;;;;;;12.93;10.13;;;;;;;12.11;85.27;97460.08;126235;1101;22776;-78
2021/05/16 00:07:37;;;;;;;14.75;11.05;;;;;;;12.09;84.50;97451.36;126107;1102;22816;-78
2021/05/16 00:10:06;;;;;;;13.85;10.45;;;;;;;12.12;84.51;97455.42;126099;1096;22896;-79
2021/05/16 00:12:34;;;;;;;;;;;;;;;12.15;84.78;97452.14;126152;1101;22726;-79
2021/05/16 00:15:04;;;;;;;13.60;10.23;;;;;;;12.17;84.58;97460.06;126052;1101;21462;-79
2021/05/16 00:17:31;;;;;;;14.80;10.67;;;;;;;12.17;84.44;97454.59;125991;1096;26216;-79
2021/05/16 00:20:18;;;;;;;14.25;10.75;;;;;;;12.17;84.38;97455.41;126139;1101;22740;-79
2021/05/16 00:22:45;;;;;;;14.00;9.70;;;;;;;12.18;84.05;97448.02;126044;1101;22770;-78
2021/05/16 00:25:17;;;;;;;13.80;10.30;;;;;;;12.13;84.01;97449.69;125961;1102;22765;-78
2021/05/16 00:27:45;;;;;;;14.25;10.70;;;;;;;12.08;83.42;97443.45;126213;1101;22931;-79
2021/05/16 00:30:16;;;;;;;15.97;10.80;;;;;;;12.05;84.07;97444.80;126014;1096;27153;-79
2021/05/16 00:32:44;;;;;;;14.75;10.90;;;;;;;12.01;84.36;97441.02;126260;1096;28374;-79
2021/05/16 00:35:16;;;;;;;14.30;9.77;;;;;;;11.99;84.32;97440.48;126384;1096;23307;-79
2021/05/16 00:38:00;;;;;;;15.70;10.33;;;;;;;11.97;84.01;97442.67;125909;1096;26328;-78
2021/05/16 00:40:27;;;;;;;14.93;9.80;;;;;;;11.93;83.60;97447.88;125981;1096;22747;-79
2021/05/16 00:42:55;;;;;;;15.67;10.70;;;;;;;11.83;83.20;97447.88;125897;1102;22744;-79
2021/05/16 00:45:26;;;;;;;16.20;10.60;;;;;;;11.77;83.41;97438.06;126063;1101;22743;-79
2021/05/16 00:48:05;;;;;;;13.45;11.25;;;;;;;11.73;83.53;97442.45;126121;1101;22765;-79
2021/05/16 00:50:38;;;;;;;15.63;10.17;;;;;;;11.70;83.48;97441.08;125823;1103;22744;-78
2021/05/16 00:53:06;;;;;;;12.45;9.45;;;;;;;11.67;83.44;97428.02;125809;1101;22761;-79
2021/05/16 00:55:34;;;;;;;14.85;10.20;;;;;;;11.67;83.68;97427.17;126049;1096;22835;-79
2021/05/16 00:58:17;;;;;;;11.60;10.30;;;;;;;11.68;84.04;97426.91;125824;1102;22913;-79
2021/05/16 01:01:03;;;;;;;17.85;10.45;;;;;;;11.68;83.58;97423.37;126121;1101;22762;-79
2021/05/16 01:03:32;;;;;;;12.97;9.93;;;;;;;11.66;83.62;97422.83;126193;1101;22843;-78
2021/05/16 01:06:00;;;;;;;15.50;9.53;;;;;;;11.62;83.76;97411.66;126152;1101;23184;-78
2021/05/16 01:08:32;;;;;;;13.05;9.20;;;;;;;11.58;83.64;97405.95;126106;1101;22755;-78
2021/05/16 01:11:00;;;;;;;13.97;10.03;;;;;;;11.57;83.65;97408.95;126143;1096;25970;-78
2021/05/16 01:13:29;;;;;;;15.75;11.10;;;;;;;11.55;83.83;97403.77;126158;1101;22758;-78
2021/05/16 01:16:11;;;;;;;16.25;10.90;;;;;;;11.54;84.23;97406.77;126133;1101;23077;-78
2021/05/16 01:18:38;;;;;;;14.45;10.05;;;;;;;11.53;84.02;97397.78;126074;1096;22758;-79
2021/05/16 01:21:08;;;;;;;13.60;9.20;;;;;;;11.52;83.92;97400.78;125865;1101;23173;-78
2021/05/16 01:23:50;;;;;;;18.20;10.80;;;;;;;11.50;84.26;97401.05;126046;1101;22907;-78
2021/05/16 01:26:52;;;;;;;15.20;10.67;;;;;;;11.43;84.06;97399.72;126231;1101;22731;-78
2021/05/16 01:29:21;;;;;;;15.55;10.50;;;;;;;11.40;84.26;97395.63;126174;1096;24371;-78
2021/05/16 01:31:49;;;;;;;14.73;10.18;;;;;;;11.35;84.32;97404.65;126182;1101;22758;-78
2021/05/16 01:34:17;;;;;;;13.55;9.15;;;;;;;11.26;83.83;97413.65;125918;1101;22755;-78
2021/05/16 01:36:44;;;;;;;15.70;9.85;;;;;;;11.06;82.55;97400.88;126105;1101;22810;-78
2021/05/16 01:39:15;;;;;;;13.80;9.43;;;;;;;10.95;83.07;97409.05;125921;1101;22738;-78
2021/05/16 01:41:42;;;;;;;16.70;10.70;;;;;;;10.91;83.67;97412.61;126080;1101;22738;-78
2021/05/16 01:44:13;;;;;;;13.57;9.80;;;;;;;10.90;83.69;97414.50;126113;1101;22755;-78
2021/05/16 01:46:45;;;;;;;13.20;9.60;;;;;;;10.87;83.83;97412.34;126107;1101;22885;-78
2021/05/16 01:49:13;;;;;;;11.73;9.60;;;;;;;10.86;84.31;97412.61;126022;1101;24402;-78
2021/05/16 01:51:40;;;;;;;12.40;9.80;;;;;;;10.87;84.30;97406.89;126063;1101;23219;-78
2021/05/16 01:54:10;;;;;;;13.10;10.00;;;;;;;10.88;84.67;97411.23;126086;1096;26197;-78
2021/05/16 01:56:37;;;;;;;14.88;9.78;;;;;;;10.87;84.32;97406.05;126128;1102;22755;-78
2021/05/16 01:59:19;;;;;;;15.50;9.63;;;;;;;10.78;84.42;97406.63;125824;1096;26197;-78
2021/05/16 02:01:48;;;;;;;13.88;9.65;;;;;;;10.78;84.74;97413.95;126115;1101;22734;-78
2021/05/16 02:04:16;;;;;;;12.85;9.75;;;;;;;10.77;84.28;97402.25;126121;1101;22777;-78
2021/05/16 02:06:44;;;;;;;13.10;9.50;;;;;;;10.79;84.91;97404.70;126075;1101;24373;-78
2021/05/16 02:09:12;;;;;;;13.30;8.65;;;;;;;10.77;84.97;97399.53;126133;1101;22793;-78
2021/05/16 02:11:39;;;;;;;12.10;8.45;;;;;;;10.79;84.98;97410.16;126089;1096;24377;-78
2021/05/16 02:14:10;;;;;;;11.85;8.30;;;;;;;10.78;85.15;97413.95;125845;1102;22785;-78
2021/05/16 02:16:39;;;;;;;11.63;9.20;;;;;;;10.78;85.51;97413.95;126101;1101;24424;-77
2021/05/16 02:19:11;;;;;;;13.95;9.35;;;;;;;10.78;85.48;97412.06;126108;1101;22734;-78
2021/05/16 02:21:41;;;;;;;12.23;8.83;;;;;;;10.79;85.92;97410.96;126082;1101;22772;-78
2021/05/16 02:24:09;;;;;;;12.38;8.33;;;;;;;10.82;85.91;97402.25;126118;1101;22749;-77
2021/05/16 02:27:00;;;;;;;13.80;9.60;;;;;;;10.87;86.12;97395.16;126091;1096;25951;-79
2021/05/16 02:29:29;;;;;;;11.95;9.05;;;;;;;10.93;86.06;97396.81;126063;1096;22719;-78
2021/05/16 02:32:00;;;;;;;13.23;9.13;;;;;;;10.97;86.34;97403.33;126184;1101;22734;-78
2021/05/16 02:34:29;;;;;;;13.40;9.75;;;;;;;11.00;86.77;97400.88;126101;1096;26209;-77
2021/05/16 02:36:57;;;;;;;17.60;9.70;;;;;;;11.03;86.82;97402.25;126035;1096;27261;-78
2021/05/16 02:39:24;;;;;;;10.10;8.30;;;;;;;11.06;86.14;97404.41;126071;1101;22733;-78
2021/05/16 02:41:53;;;;;;;13.00;8.30;;;;;;;11.01;85.47;97405.25;125964;1097;25874;-78
2021/05/16 02:44:21;;;;;;;12.80;8.28;;;;;;;10.95;85.11;97398.16;126214;1101;22719;-78
2021/05/16 02:46:49;;;;;;;12.83;8.97;;;;;;;10.88;84.75;97396.81;126120;1101;22734;-78
2021/05/16 02:49:16;;;;;;;11.85;9.30;;;;;;;10.85;86.27;97395.44;126055;1101;22734;-78
2021/05/16 02:51:44;;;;;;;11.40;8.10;;;;;;;10.87;85.76;97396.00;126122;1101;24609;-78
2021/05/16 02:54:12;;;;;;;11.30;8.33;;;;;;;10.82;85.18;97401.45;126062;1101;22745;-78
2021/05/16 02:56:40;;;;;;;12.63;9.20;;;;;;;10.77;85.18;97399.53;126033;1101;24380;-78
2021/05/16 02:59:23;;;;;;;13.95;9.65;;;;;;;10.82;85.89;97399.53;126043;1101;22799;-78
2021/05/16 03:01:53;;;;;;;14.20;9.25;;;;;;;10.86;86.16;97396.27;126177;1101;24397;-78
2021/05/16 03:04:21;;;;;;;11.73;7.90;;;;;;;10.86;85.85;97397.08;126177;1101;22738;-78
2021/05/16 03:06:49;;;;;;;9.60;7.57;;;;;;;10.91;85.95;97404.44;125845;1096;27237;-78
2021/05/16 03:09:17;;;;;;;12.80;8.05;;;;;;;10.95;86.46;97398.16;126031;1096;22738;-78
2021/05/16 03:11:44;;;;;;;12.53;8.53;;;;;;;11.01;86.44;97402.52;125797;1101;22731;-78
2021/05/16 03:14:13;;;;;;;12.40;8.75;;;;;;;11.04;86.49;97392.97;125901;1103;22854;-78
2021/05/16 03:16:40;;;;;;;12.63;9.37;;;;;;;11.08;86.51;97383.16;126336;1096;26200;-78
2021/05/16 03:19:08;;;;;;;10.90;8.35;;;;;;;11.13;86.56;97394.05;126285;1096;23183;-78
2021/05/16 03:21:45;;;;;;;11.95;8.30;;;;;;;11.21;87.02;97396.22;125925;1102;22738;-78
2021/05/16 03:24:13;;;;;;;9.28;8.25;;;;;;;11.31;86.82;97391.84;126282;1101;22730;-78
2021/05/16 03:26:41;;;;;;;11.57;8.43;;;;;;;11.37;86.54;97388.02;126314;1101;22773;-78
2021/05/16 03:29:10;;;;;;;14.47;8.70;;;;;;;11.43;86.52;97400.53;126114;1096;22799;-78
2021/05/16 03:31:38;;;;;;;13.10;8.67;;;;;;;11.48;86.72;97397.80;126350;1101;22755;-78
2021/05/16 03:34:07;;;;;;;9.68;7.33;;;;;;;11.53;86.41;97397.78;126329;1101;22816;-78
2021/05/16 03:36:35;;;;;;;11.50;8.90;;;;;;;11.57;85.55;97398.05;126334;1096;26197;-78
2021/05/16 03:39:16;;;;;;;10.80;8.65;;;;;;;11.50;84.88;97392.88;125948;1101;22845;-78
2021/05/16 03:41:44;;;;;;;11.70;8.20;;;;;;;11.44;84.80;97394.00;125929;1096;22784;-78
2021/05/16 03:44:11;;;;;;;11.60;8.70;;;;;;;11.39;85.19;97389.36;126273;1096;22758;-78
2021/05/16 03:46:39;;;;;;;9.80;7.80;;;;;;;11.40;85.55;97395.63;126253;1101;22799;-78
2021/05/16 03:49:07;;;;;;;12.57;8.63;;;;;;;11.45;85.20;97392.89;125956;1101;22821;-78
2021/05/16 03:51:34;;;;;;;12.97;8.93;;;;;;;11.51;85.60;97393.69;126194;1101;24543;-78
2021/05/16 03:54:02;;;;;;;9.50;7.77;;;;;;;11.50;85.27;97398.33;126164;1096;26175;-78
2021/05/16 03:56:30;;;;;;;10.30;8.17;;;;;;;11.46;85.11;97401.91;126246;1096;22746;-78
2021/05/16 03:59:11;;;;;;;13.73;9.27;;;;;;;11.45;85.33;97400.26;126199;1096;26206;-78
2021/05/16 04:01:39;;;;;;;13.05;8.25;;;;;;;11.42;84.76;97404.37;126200;1096;26210;-78
2021/05/16 04:04:20;;;;;;;11.85;8.55;;;;;;;11.35;85.27;97401.09;126046;1102;22902;-78
2021/05/16 04:06:48;;;;;;;13.57;8.70;;;;;;;11.35;85.42;97398.36;126002;1096;22771;-78
2021/05/16 04:09:15;;;;;;;14.00;9.10;;;;;;;11.42;86.03;97395.35;125920;1102;24384;-78
2021/05/16 04:11:43;;;;;;;14.55;9.45;;;;;;;11.54;86.19;97387.69;126282;1096;26258;-78
2021/05/16 04:14:10;;;;;;;10.17;8.27;;;;;;;11.66;85.79;97384.66;126230;1096;25871;-78
2021/05/16 04:16:52;;;;;;;12.85;7.45;;;;;;;11.76;85.44;97395.53;125940;1101;22809;-78
2021/05/16 04:19:19;;;;;;;11.90;8.80;;;;;;;11.83;85.76;97395.20;125915;1096;27123;-78
2021/05/16 04:21:47;;;;;;;12.40;8.25;;;;;;;11.91;85.67;97387.29;126184;1101;22815;-78
2021/05/16 04:24:15;;;;;;;10.80;8.80;;;;;;;11.98;85.51;97386.99;126227;1101;22845;-78
2021/05/16 04:26:43;;;;;;;9.90;8.05;;;;;;;12.06;85.78;97396.52;125940;1102;22829;-78
2021/05/16 04:29:11;;;;;;;10.30;7.15;;;;;;;12.14;86.13;97399.45;126240;1101;22871;-78
2021/05/16 04:31:39;;;;;;;11.93;8.13;;;;;;;12.27;85.88;97391.73;126221;1101;22741;-78
2021/05/16 04:34:06;;;;;;;15.55;9.40;;;;;;;12.34;86.10;97387.62;125950;1096;27240;-79
2021/05/16 04:36:34;;;;;;;10.55;8.80;;;;;;;12.43;85.85;97384.27;126256;1096;27113;-79
2021/05/16 04:39:03;;;;;;;12.10;9.90;;;;;;;12.50;85.92;97379.30;126223;1101;22737;-79
2021/05/16 04:41:33;;;;;;;11.73;9.00;;;;;;;12.56;85.56;97371.91;126393;1101;23408;-78
2021/05/16 04:44:01;;;;;;;11.60;9.10;;;;;;;12.67;86.04;97374.26;126240;1101;22796;-79
2021/05/16 04:46:29;;;;;;;11.37;9.13;;;;;;;12.80;85.62;97375.55;126403;1101;22751;-79
2021/05/16 04:48:57;;;;;;;11.95;8.90;;;;;;;12.94;85.70;97380.33;125912;1101;22748;-79
2021/05/16 04:51:24;;;;;;;12.47;8.73;;;;;;;13.06;85.77;97386.23;126211;1101;22818;-79
2021/05/16 04:53:52;;;;;;;13.05;9.15;;;;;;;13.18;85.77;97380.39;126178;1096;25867;-79
2021/05/16 04:56:20;;;;;;;12.90;9.30;;;;;;;13.28;85.71;97374.83;126152;1101;22784;-79
2021/05/16 04:58:48;;;;;;;11.05;8.70;;;;;;;13.30;84.67;97370.69;125921;1102;22803;-79
2021/05/16 05:01:29;;;;;;;11.77;8.83;;;;;;;13.31;83.63;97374.26;126306;1101;24510;-79
2021/05/16 05:03:58;;;;;;;12.20;9.00;;;;;;;13.36;84.01;97362.46;126167;1096;27189;-79
2021/05/16 05:06:29;;;;;;;11.53;8.88;;;;;;;13.42;84.36;97364.86;126185;1101;22738;-78
2021/05/16 05:09:00;;;;;;;14.05;9.85;;;;;;;13.47;83.82;97370.27;126042;1101;22771;-79
2021/05/16 05:11:27;;;;;;;12.80;9.50;;;;;;;13.52;83.88;97363.91;126241;1096;26232;-79
2021/05/16 05:13:55;;;;;;;15.40;9.00;;;;;;;13.59;83.52;97361.64;125916;1101;22758;-79
2021/05/16 05:16:22;;;;;;;14.20;8.80;;;;;;;13.68;83.57;97353.61;126136;1101;24603;-79
2021/05/16 05:18:50;;;;;;;12.80;8.90;;;;;;;13.79;83.04;97359.77;126150;1101;23245;-78
2021/05/16 05:21:17;;;;;;;14.35;9.20;;;;;;;13.88;83.34;97359.92;125894;1102;23187;-78
2021/05/16 05:23:45;;;;;;;12.70;8.25;;;;;;;13.94;82.85;97359.57;126203;1096;25977;-79
2021/05/16 05:26:13;;;;;;;8.35;7.10;;;;;;;13.96;82.10;97362.02;126409;1101;22738;-79
2021/05/16 05:28:40;;;;;;;9.25;7.10;;;;;;;13.97;81.97;97360.89;125993;1096;27167;-79
2021/05/16 05:31:08;;;;;;;10.10;7.75;;;;;;;13.97;81.91;97358.16;125998;1103;22781;-79
2021/05/16 05:33:36;;;;;;;9.60;7.40;;;;;;;13.97;81.73;97349.94;126218;1102;22755;-79
2021/05/16 05:36:04;;;;;;;13.45;8.25;;;;;;;13.99;81.74;97358.70;126106;1101;22810;-79
2021/05/16 05:38:32;;;;;;;8.73;7.00;;;;;;;13.99;82.20;97362.24;126215;1101;22738;-79
2021/05/16 05:41:00;;;;;;;8.00;6.50;;;;;;;14.03;81.61;97366.02;126138;1102;22813;-79
2021/05/16 05:43:28;;;;;;;10.05;6.85;;;;;;;14.06;82.08;97372.84;126286;1101;22980;-79
2021/05/16 05:45:55;;;;;;;10.25;7.40;;;;;;;14.11;81.94;97372.77;126276;1096;25890;-79
2021/05/16 05:48:23;;;;;;;9.00;6.60;;;;;;;14.14;81.60;97368.62;126216;1096;25858;-79
2021/05/16 05:50:51;;;;;;;8.03;6.83;;;;;;;14.17;81.55;97368.03;125933;1101;24399;-79
2021/05/16 05:53:20;;;;;;;11.73;6.97;;;;;;;14.24;81.58;97373.95;126371;1096;22813;-79
2021/05/16 05:56:02;;;;;;;11.10;8.10;;;;;;;14.28;80.81;97376.92;126389;1101;22952;-79
2021/05/16 05:58:33;;;;;;;11.45;8.25;;;;;;;14.30;80.65;97377.43;126396;1101;22787;-79
2021/05/16 06:01:01;;;;;;;10.60;7.73;;;;;;;14.31;81.10;97374.40;126575;1101;22883;-79
2021/05/16 06:03:29;;;;;;;12.73;8.73;;;;;;;14.37;81.10;97378.68;126277;1101;22765;-79
2021/05/16 06:05:57;;;;;;;11.90;8.50;;;;;;;14.43;81.11;97380.25;126383;1101;22823;-79
2021/05/16 06:08:24;;;;;;;11.50;8.35;;;;;;;14.57;81.31;97391.28;126289;1095;27362;-79
2021/05/16 06:11:06;;;;;;;14.40;9.70;;;;;;;14.74;81.22;97382.53;126172;1095;26110;-79
2021/05/16 06:13:33;;;;;;;15.50;9.25;;;;;;;14.85;80.34;97376.89;126171;1101;22761;-79
2021/05/16 06:16:15;;;;;;;12.10;8.95;;;;;;;14.98;80.06;97381.63;126215;1101;22817;-79
2021/05/16 06:18:43;;;;;;;10.85;8.35;;;;;;;15.02;79.77;97381.83;126196;1096;25945;-79
2021/05/16 06:21:11;;;;;;;5.85;5.25;;;;;;;15.08;79.01;97383.36;126194;1096;22903;-79
2021/05/16 06:24:07;;;;;;;6.05;4.90;;;;;;;15.16;78.08;97383.48;126151;1101;22740;-79
2021/05/16 06:26:39;;;;;;;6.57;5.10;;;;;;;15.27;77.70;97381.37;126183;1101;22817;-79
2021/05/16 06:29:08;;;;;;;7.40;4.10;;;;;;;15.35;77.45;97377.10;126501;1101;22734;-79
2021/05/16 06:31:36;;;;;;;4.60;3.85;;;;;;;15.45;77.16;97379.66;126557;1101;22758;-79
2021/05/16 06:34:04;;;;;;;5.08;4.55;;;;;;;15.51;76.44;97372.14;126409;1101;22761;-79
2021/05/16 06:36:33;;;;;;;4.27;3.60;;;;;;;15.55;75.67;97376.73;126602;1101;22734;-79
2021/05/16 06:39:00;;;;;;;5.18;3.70;;;;;;;15.61;75.92;97382.92;126487;1096;26203;-79
2021/05/16 06:41:28;;;;;;;4.57;3.90;;;;;;;15.63;76.02;97385.36;126405;1101;22777;-79
2021/05/16 06:43:56;;;;;;;3.90;3.60;;;;;;;15.62;75.33;97375.52;126410;1101;22758;-79
2021/05/16 06:46:23;;;;;;;6.93;3.63;;;;;;;15.65;75.69;97380.38;126427;1095;26266;-79
2021/05/16 06:48:51;;;;;;;5.85;3.90;;;;;;;15.67;75.79;97372.65;126205;1101;22744;-79
2021/05/16 06:51:32;;;;;;;4.90;3.70;;;;;;;15.72;76.03;97381.63;126358;1101;22971;-79
2021/05/16 06:54:00;;;;;;;5.17;3.83;;;;;;;15.79;74.85;97383.97;126466;1101;22851;-79
2021/05/16 06:56:27;;;;;;;7.13;3.70;;;;;;;15.86;74.55;97383.56;126532;1096;22747;-80
2021/05/16 06:58:55;;;;;;;4.15;2.90;;;;;;;15.97;74.59;97378.67;126273;1101;22734;-79
2021/05/16 07:01:23;;;;;;;3.53;2.70;;;;;;;16.07;73.93;97384.76;126411;1101;22758;-79
2021/05/16 07:03:51;;;;;;;4.20;2.50;;;;;;;16.11;73.17;97380.30;126369;1102;24144;-79
2021/05/16 07:06:18;;;;;;;3.27;2.43;;;;;;;16.14;73.47;97389.84;126438;1101;22778;-79
2021/05/16 07:08:49;;;;;;;4.20;2.40;;;;;;;16.10;72.55;97386.09;126402;1101;22910;-79
2021/05/16 07:11:18;;;;;;;3.00;2.00;;;;;;;16.09;71.59;97389.95;126389;1095;26235;-80
2021/05/16 07:13:46;;;;;;;2.98;2.43;;;;;;;16.05;71.91;97387.00;126345;1101;22764;-79
2021/05/16 07:16:14;;;;;;;2.70;1.80;;;;;;;16.13;71.54;97377.25;126427;1101;22758;-79
2021/05/16 07:18:42;;;;;;;1.60;1.50;;;;;;;16.25;71.33;97387.69;126377;1101;24207;-79
2021/05/16 07:21:24;;;;;;;2.43;1.73;;;;;;;16.37;70.75;97382.47;127047;1101;22766;-79
2021/05/16 07:23:51;;;;;;;2.53;1.83;;;;;;;16.49;70.68;97373.69;126876;1096;23721;-79
2021/05/16 07:26:19;;;;;;;2.08;1.50;;;;;;;16.62;69.76;97378.31;126877;1095;26238;-80
2021/05/16 07:28:47;;;;;;;4.25;1.50;;;;;;;16.70;67.71;97374.83;126543;1101;22842;-80
2021/05/16 07:31:28;;;;;;;1.70;1.60;;;;;;;16.80;67.84;97379.28;126486;1101;22785;-78
2021/05/16 07:33:56;;;;;;;2.03;1.30;;;;;;;16.88;66.57;97374.98;126321;1101;22734;-77
2021/05/16 07:36:23;;;;;;;2.23;1.33;;;;;;;16.90;66.14;97380.98;126199;1101;23139;-77
2021/05/16 07:38:51;;;;;;;1.67;1.10;;;;;;;16.92;65.38;97380.67;126182;1095;26208;-77
2021/05/16 07:41:19;;;;;;;1.10;0.90;;;;;;;16.88;64.99;97375.79;126230;1101;22758;-77
2021/05/16 07:43:46;;;;;;;1.30;1.00;;;;;;;16.88;64.41;97372.23;126178;1101;22889;-77
2021/05/16 07:46:15;;;;;;;0.70;0.70;;;;;;;16.83;63.75;97372.33;126605;1101;22744;-77
2021/05/16 07:48:57;;;;;;;0.53;0.53;;;;;;;16.75;62.63;97371.16;126226;1096;22799;-77
2021/05/16 07:51:24;;;;;;;1.28;0.60;;;;;;;16.70;62.42;97376.77;125938;1102;22806;-77
2021/05/16 07:53:52;;;;;;;2.25;0.80;;;;;;;16.63;62.58;97377.20;126167;1101;22776;-77
2021/05/16 07:56:20;;;;;;;2.68;0.73;;;;;;;16.59;62.60;97378.12;126303;1101;22734;-77
2021/05/16 07:58:48;;;;;;;1.20;0.90;;;;;;;16.57;63.02;97380.38;126407;1101;22758;-78
2021/05/16 08:01:15;;;;;;;1.23;0.83;;;;;;;16.55;62.81;97372.43;126215;1096;26239;-78
2021/05/16 08:03:57;;;;;;;4.15;1.10;;;;;;;16.60;64.10;97377.01;126268;1096;25941;-78
2021/05/16 08:06:25;;;;;;;2.30;1.20;;;;;;;16.59;64.26;97386.36;126439;1101;24364;-78
2021/05/16 08:08:53;;;;;;;3.33;0.98;;;;;;;16.56;64.17;97384.27;126189;1101;23699;-78
2021/05/16 08:11:21;;;;;;;2.13;1.15;;;;;;;16.55;65.71;97379.88;126282;1101;23015;-77
2021/05/16 08:13:50;;;;;;;1.55;0.80;;;;;;;16.58;65.37;97388.31;125964;1096;27147;-78
2021/05/16 08:16:18;;;;;;;2.25;1.00;;;;;;;16.66;65.60;97382.08;126484;1096;22819;-77
2021/05/16 08:18:47;;;;;;;1.68;1.03;;;;;;;16.79;65.74;97390.59;125954;1096;26238;-78
2021/05/16 08:21:15;;;;;;;1.40;0.90;;;;;;;16.96;66.49;97395.41;126429;1096;26209;-78
2021/05/16 08:23:42;;;;;;;0.50;0.50;;;;;;;17.04;65.23;97398.23;126179;1101;24136;-78
2021/05/16 08:26:10;;;;;;;1.13;0.70;;;;;;;17.10;62.45;97396.16;126061;1096;22757;-79
2021/05/16 08:28:38;;;;;;;1.43;0.90;;;;;;;17.13;61.80;97394.73;126453;1101;22765;-79
2021/05/16 08:31:06;;;;;;;0.90;0.70;;;;;;;17.15;62.07;97395.22;126240;1101;22967;-79
2021/05/16 08:33:33;;;;;;;2.33;0.60;;;;;;;17.22;62.54;97396.39;126194;1096;26204;-79
2021/05/16 08:36:01;;;;;;;1.30;0.70;;;;;;;17.31;63.30;97401.14;126392;1101;22857;-79
2021/05/16 08:38:28;;;;;;;1.13;0.70;;;;;;;17.39;62.37;97392.13;126449;1096;22777;-79
2021/05/16 08:40:56;;;;;;;1.20;0.90;;;;;;;17.46;61.66;97392.49;126471;1096;26260;-79
2021/05/16 08:43:24;;;;;;;0.80;0.70;;;;;;;17.48;61.40;97394.94;126378;1101;22722;-79
2021/05/16 08:45:51;;;;;;;1.10;1.00;;;;;;;17.48;60.87;97403.19;126265;1101;22745;-79
2021/05/16 08:48:19;;;;;;;1.10;1.00;;;;;;;17.42;61.11;97406.08;126139;1096;26321;-79
2021/05/16 08:50:47;;;;;;;1.20;1.00;;;;;;;17.36;61.36;97412.02;126277;1096;22734;-79
2021/05/16 08:53:14;;;;;;;1.43;0.90;;;;;;;17.23;60.96;97409.03;126134;1101;22803;-79
2021/05/16 08:55:42;;;;;;;3.03;0.98;;;;;;;17.11;61.03;97418.99;126014;1102;22744;-79
2021/05/16 08:58:10;;;;;;;2.15;1.00;;;;;;;16.96;61.43;97420.16;126169;1101;22802;-79
2021/05/16 09:00:45;;;;;;;3.50;1.10;;;;;;;16.81;61.43;97419.38;126203;1095;25976;-79
2021/05/16 09:03:17;;;;;;;3.50;1.03;;;;;;;16.68;61.63;97421.06;126368;1096;26204;-79
2021/05/16 09:05:51;;;;;;;1.78;1.35;;;;;;;16.57;62.17;97419.66;126533;1101;22823;-79
2021/05/16 09:08:26;;;;;;;1.70;1.10;;;;;;;16.45;63.02;97425.71;126295;1095;26270;-79
2021/05/16 09:11:00;;;;;;;1.95;1.10;;;;;;;16.30;64.70;97426.84;126217;1096;23316;-79
2021/05/16 09:13:37;;;;;;;1.53;1.00;;;;;;;16.17;65.62;97430.44;126593;1101;22752;-78
2021/05/16 09:16:17;;;;;;;5.37;4.03;;;;;;;16.05;66.55;97438.38;126116;1101;23561;-78
2021/05/16 09:18:48;;;;;;;1.90;1.70;;;;;;;15.88;67.53;97441.72;126496;1101;23091;-78
2021/05/16 09:21:36;;;;;;;1.90;1.40;;;;;;;15.73;68.79;97449.11;127520;1096;22841;-79
2021/05/16 09:24:03;;;;;;;2.97;1.13;;;;;;;15.59;68.92;97451.02;126574;1096;26238;-78
2021/05/16 09:26:38;;;;;;;1.73;0.88;;;;;;;15.43;69.25;97455.97;126341;1095;26238;-78
2021/05/16 09:29:43;;;;;;;2.45;1.20;;;;;;;15.28;69.95;97454.32;127984;1101;23366;-78
2021/05/16 09:32:13;;;;;;;2.40;1.40;;;;;;;15.14;70.20;97472.66;126569;1101;22766;-77
2021/05/16 09:34:42;;;;;;;2.80;1.50;;;;;;;15.03;70.79;97468.44;126228;1101;22722;-77
2021/05/16 09:37:10;;;;;;;;;;;;;;;14.93;70.83;97469.42;127757;1101;22745;-78
2021/05/16 09:39:45;;;;;;;1.00;0.90;;;;;;;14.83;71.11;97466.83;128192;1101;21488;-78
2021/05/16 09:42:18;;;;;;;1.07;0.90;;;;;;;14.76;70.55;97478.97;126299;1102;22802;-78
2021/05/16 09:44:54;;;;;;;1.40;1.00;;;;;;;14.70;71.43;97471.95;126427;1096;24379;-78
2021/05/16 09:47:27;;;;;;;1.10;0.90;;;;;;;14.72;71.69;97461.50;127310;1096;26205;-78
2021/05/16 09:50:00;;;;;;;2.30;1.00;;;;;;;14.77;72.55;97452.40;126238;1102;22808;-78
2021/05/16 09:52:34;;;;;;;1.27;0.90;;;;;;;14.84;71.75;97449.26;126189;1096;26312;-78
2021/05/16 09:55:12;;;;;;;1.40;1.10;;;;;;;14.98;72.65;97450.97;126332;1096;25868;-78
2021/05/16 09:57:48;;;;;;;1.93;1.30;;;;;;;15.15;72.64;97444.11;126777;1101;22855;-78
2021/05/16 10:00:17;;;;;;;1.67;1.33;;;;;;;15.31;72.89;97442.73;126867;1101;23189;-78
2021/05/16 10:02:45;;;;;;;1.07;0.80;;;;;;;15.47;72.76;97445.20;128945;1096;24192;-79
2021/05/16 10:05:14;;;;;;;2.27;1.10;;;;;;;15.59;72.40;97440.05;126297;1096;25838;-78
2021/05/16 10:07:56;;;;;;;1.10;1.00;;;;;;;15.75;71.95;97435.11;126511;1101;22632;-78
2021/05/16 10:10:28;;;;;;;2.23;0.80;;;;;;;15.94;71.04;97437.77;126113;1102;22942;-78
2021/05/16 10:12:55;;;;;;;2.73;1.00;;;;;;;16.03;70.42;97444.17;126621;1096;27190;-78
2021/05/16 10:15:24;;;;;;;1.60;0.80;;;;;;;16.13;69.42;97446.72;126620;1096;27349;-78
2021/05/16 10:17:57;;;;;;;0.73;0.73;;;;;;;16.20;70.07;97446.31;126457;1101;24520;-77
2021/05/16 10:20:27;;;;;;;;;;;;;;;16.25;69.81;97451.67;126522;1101;22758;-77
2021/05/16 10:23:10;;;;;;;0.80;0.80;;;;;;;16.27;68.84;97440.38;126585;1101;21464;-77
2021/05/16 10:25:46;;;;;;;1.60;0.90;;;;;;;16.35;69.34;97444.36;126492;1096;22766;-78
2021/05/16 10:28:17;;;;;;;1.68;0.83;;;;;;;16.40;67.97;97436.01;126402;1102;22834;-78
2021/05/16 10:31:09;;;;;;;1.55;0.60;;;;;;;16.43;67.98;97441.70;126127;1096;22739;-78
2021/05/16 10:33:42;;;;;;;0.70;0.70;;;;;;;16.51;68.43;97446.45;126515;1096;22805;-78
2021/05/16 10:36:10;;;;;;;1.40;0.88;;;;;;;16.59;68.01;97438.59;126022;1096;22803;-78
2021/05/16 10:38:43;;;;;;;1.23;0.60;;;;;;;16.64;66.69;97446.72;125894;1103;22815;-78
2021/05/16 10:41:23;;;;;;;0.93;0.78;;;;;;;16.66;66.89;97438.97;126301;1102;22879;-78
2021/05/16 10:43:51;;;;;;;0.65;0.65;;;;;;;16.74;67.11;97432.75;126499;1101;24147;-78
2021/05/16 10:46:37;;;;;;;1.08;0.60;;;;;;;16.77;66.49;97439.55;126410;1101;22780;-79
2021/05/16 10:49:25;;;;;;;0.60;0.60;;;;;;;16.77;66.45;97439.55;126248;1101;22761;-78
2021/05/16 10:51:54;;;;;;;1.73;0.70;;;;;;;16.79;66.24;97432.63;126229;1096;25915;-79
2021/05/16 10:54:35;;;;;;;0.95;0.75;;;;;;;16.80;66.21;97437.02;126250;1101;22747;-79
2021/05/16 10:57:18;;;;;;;1.03;0.70;;;;;;;16.80;65.42;97428.77;126233;1101;24419;-78
2021/05/16 10:59:46;;;;;;;1.58;0.70;;;;;;;16.78;63.74;97431.00;126450;1101;22847;-78
2021/05/16 11:02:51;;;;;;;1.03;0.53;;;;;;;16.83;63.97;97430.08;129405;1096;22751;-78
2021/05/16 11:05:43;;;;;;;1.25;0.33;;;;;;;16.89;63.52;97432.43;126985;1096;22909;-78
2021/05/16 11:08:12;;;;;;;0.90;0.43;;;;;;;16.96;63.02;97420.97;126803;1096;26219;-78
2021/05/16 11:10:39;;;;;;;0.35;0.35;;;;;;;17.05;62.35;97423.78;130092;1101;22649;-79
2021/05/16 11:13:14;;;;;;;1.05;0.40;;;;;;;17.07;60.64;97425.11;126767;1096;22802;-79
2021/05/16 11:16:06;;;;;;;0.40;0.40;;;;;;;17.08;60.97;97423.97;126537;1101;22775;-79
2021/05/16 11:18:35;;;;;;;0.58;0.40;;;;;;;17.17;61.60;97420.48;126566;1101;23303;-79
2021/05/16 11:21:08;;;;;;;0.78;0.60;;;;;;;17.27;62.71;97420.22;127973;1101;22907;-79
2021/05/16 11:23:38;;;;;;;0.58;0.40;;;;;;;17.37;61.01;97419.13;126739;1101;22797;-78
2021/05/16 11:26:22;;;;;;;0.73;0.60;;;;;;;17.45;61.28;97415.63;126804;1101;22823;-78
2021/05/16 11:28:50;;;;;;;1.15;0.40;;;;;;;17.48;59.69;97412.25;130080;1101;23003;-79
2021/05/16 11:31:21;;;;;;;0.43;0.43;;;;;;;17.49;58.17;97411.11;126169;1101;22771;-78
2021/05/16 11:33:53;;;;;;;1.68;0.50;;;;;;;17.55;59.35;97415.36;126294;1096;22835;-78
2021/05/16 11:36:24;;;;;;;1.48;0.40;;;;;;;17.57;57.90;97413.10;127028;1101;23526;-79
2021/05/16 11:38:54;;;;;;;0.38;0.38;;;;;;;17.45;56.84;97413.68;125948;1096;23520;-78